sensor_id;sensor_type;location;lat;lon;timestamp;temperature;humidity
15107;DHT22;7654;45.308;-75.096;2023-01-29T00:01:22;-1.30;99.90
15107;DHT22;7654;45.308;-75.096;2023-01-29T00:03:52;-1.30;99.90
15107;DHT22;7654;45.308;-75.096;2023-01-29T00:06:22;-1.30;99.90
15107;DHT22;7654;45.308;-75.096;2023-01-29T00:08:54;-1.40;99.90
15107;DHT22;7654;45.308;-75.096;2023-01-29T00:11:24;-1.40;99.90
15107;DHT22;7654;45.308;-75.096;2023-01-29T00:13:54;-1.40;99.90
15107;DHT22;7654;45.308;-75.096;2023-01-29T00:16:24;-1.40;99.90
15107;DHT22;7654;45.308;-75.096;2023-01-29T00:18:54;-1.50;99.90
15107;DHT22;7654;45.308;-75.096;2023-01-29T00:21:25;-1.50;99.90
15107;DHT22;7654;45.308;-75.096;2023-01-29T00:23:58;-1.50;99.90
15107;DHT22;7654;45.308;-75.096;2023-01-29T00:26:30;-1.60;99.90
15107;DHT22;7654;45.308;-75.096;2023-01-29T00:29:00;-1.60;99.90
15107;DHT22;7654;45.308;-75.096;2023-01-29T00:31:30;-1.60;99.90
15107;DHT22;7654;45.308;-75.096;2023-01-29T00:34:01;-1.70;99.90
15107;DHT22;7654;45.308;-75.096;2023-01-29T00:36:31;-1.70;99.90
15107;DHT22;7654;45.308;-75.096;2023-01-29T00:39:03;-1.80;99.90
15107;DHT22;7654;45.308;-75.096;2023-01-29T00:41:38;-1.80;99.90
15107;DHT22;7654;45.308;-75.096;2023-01-29T00:44:25;-1.90;99.90
15107;DHT22;7654;45.308;-75.096;2023-01-29T00:47:13;-2.00;99.90
15107;DHT22;7654;45.308;-75.096;2023-01-29T00:49:56;-2.00;99.90
15107;DHT22;7654;45.308;-75.096;2023-01-29T00:52:27;-2.10;99.90
15107;DHT22;7654;45.308;-75.096;2023-01-29T00:54:59;-2.10;99.90
15107;DHT22;7654;45.308;-75.096;2023-01-29T00:57:31;-2.00;99.90
15107;DHT22;7654;45.308;-75.096;2023-01-29T01:00:02;-2.10;99.90
15107;DHT22;7654;45.308;-75.096;2023-01-29T01:02:33;-2.10;99.90
15107;DHT22;7654;45.308;-75.096;2023-01-29T01:05:21;-2.10;99.90
15107;DHT22;7654;45.308;-75.096;2023-01-29T01:07:56;-2.00;99.90
15107;DHT22;7654;45.308;-75.096;2023-01-29T01:10:31;-2.00;99.90
15107;DHT22;7654;45.308;-75.096;2023-01-29T01:13:02;-2.00;99.90
15107;DHT22;7654;45.308;-75.096;2023-01-29T01:15:35;-2.00;99.90
15107;DHT22;7654;45.308;-75.096;2023-01-29T01:18:07;-1.90;99.90
15107;DHT22;7654;45.308;-75.096;2023-01-29T01:20:38;-2.00;99.90
15107;DHT22;7654;45.308;-75.096;2023-01-29T01:23:09;-2.00;99.90
15107;DHT22;7654;45.308;-75.096;2023-01-29T01:25:46;-1.90;99.90
15107;DHT22;7654;45.308;-75.096;2023-01-29T01:28:17;-1.90;99.90
15107;DHT22;7654;45.308;-75.096;2023-01-29T01:30:48;-1.90;99.90
15107;DHT22;7654;45.308;-75.096;2023-01-29T01:33:20;-1.90;99.90
15107;DHT22;7654;45.308;-75.096;2023-01-29T01:35:50;-1.90;99.90
15107;DHT22;7654;45.308;-75.096;2023-01-29T01:38:21;-1.90;99.90
15107;DHT22;7654;45.308;-75.096;2023-01-29T01:40:53;-1.90;99.90
15107;DHT22;7654;45.308;-75.096;2023-01-29T01:43:25;-1.90;99.90
15107;DHT22;7654;45.308;-75.096;2023-01-29T01:45:56;-2.00;99.90
15107;DHT22;7654;45.308;-75.096;2023-01-29T01:48:27;-1.90;99.90
15107;DHT22;7654;45.308;-75.096;2023-01-29T01:51:00;-1.90;99.90
15107;DHT22;7654;45.308;-75.096;2023-01-29T01:53:34;-2.00;99.90
15107;DHT22;7654;45.308;-75.096;2023-01-29T01:56:10;-2.00;99.90
15107;DHT22;7654;45.308;-75.096;2023-01-29T01:58:44;-2.00;99.90
15107;DHT22;7654;45.308;-75.096;2023-01-29T02:01:18;-2.10;99.90
15107;DHT22;7654;45.308;-75.096;2023-01-29T02:03:57;-2.10;99.90
15107;DHT22;7654;45.308;-75.096;2023-01-29T02:06:46;-2.00;99.90
15107;DHT22;7654;45.308;-75.096;2023-01-29T02:09:38;-2.00;99.90
15107;DHT22;7654;45.308;-75.096;2023-01-29T02:12:12;-2.00;99.90
15107;DHT22;7654;45.308;-75.096;2023-01-29T02:14:43;-2.10;99.90
15107;DHT22;7654;45.308;-75.096;2023-01-29T02:17:14;-2.10;99.90
15107;DHT22;7654;45.308;-75.096;2023-01-29T02:19:49;-2.10;99.90
15107;DHT22;7654;45.308;-75.096;2023-01-29T02:22:44;-2.10;99.90
15107;DHT22;7654;45.308;-75.096;2023-01-29T02:28:33;-2.00;99.90
15107;DHT22;7654;45.308;-75.096;2023-01-29T02:31:09;-2.00;99.90
15107;DHT22;7654;45.308;-75.096;2023-01-29T02:33:49;-2.10;99.90
15107;DHT22;7654;45.308;-75.096;2023-01-29T02:36:28;-2.00;99.90
15107;DHT22;7654;45.308;-75.096;2023-01-29T02:39:07;-2.00;99.90
15107;DHT22;7654;45.308;-75.096;2023-01-29T02:41:45;-2.00;99.90
15107;DHT22;7654;45.308;-75.096;2023-01-29T02:44:29;-2.00;99.90
15107;DHT22;7654;45.308;-75.096;2023-01-29T02:47:12;-2.00;99.90
15107;DHT22;7654;45.308;-75.096;2023-01-29T02:49:47;-2.00;99.90
15107;DHT22;7654;45.308;-75.096;2023-01-29T02:52:20;-2.10;99.90
15107;DHT22;7654;45.308;-75.096;2023-01-29T02:54:54;-2.20;99.90
15107;DHT22;7654;45.308;-75.096;2023-01-29T02:57:29;-2.20;99.90
15107;DHT22;7654;45.308;-75.096;2023-01-29T03:00:05;-2.20;99.90
15107;DHT22;7654;45.308;-75.096;2023-01-29T03:02:42;-2.30;99.90
15107;DHT22;7654;45.308;-75.096;2023-01-29T03:05:17;-2.40;99.90
15107;DHT22;7654;45.308;-75.096;2023-01-29T03:07:55;-2.50;99.90
15107;DHT22;7654;45.308;-75.096;2023-01-29T03:10:30;-2.60;99.90
15107;DHT22;7654;45.308;-75.096;2023-01-29T03:13:07;-2.60;99.90
15107;DHT22;7654;45.308;-75.096;2023-01-29T03:15:42;-2.60;99.90
15107;DHT22;7654;45.308;-75.096;2023-01-29T03:18:16;-2.60;99.90
15107;DHT22;7654;45.308;-75.096;2023-01-29T03:20:50;-2.60;99.90
15107;DHT22;7654;45.308;-75.096;2023-01-29T03:23:28;-2.70;99.90
15107;DHT22;7654;45.308;-75.096;2023-01-29T03:26:17;-2.70;99.90
15107;DHT22;7654;45.308;-75.096;2023-01-29T03:29:07;-2.80;99.90
15107;DHT22;7654;45.308;-75.096;2023-01-29T03:31:57;-2.80;99.90
15107;DHT22;7654;45.308;-75.096;2023-01-29T03:34:40;-2.90;99.90
15107;DHT22;7654;45.308;-75.096;2023-01-29T03:37:14;-2.90;99.90
15107;DHT22;7654;45.308;-75.096;2023-01-29T03:39:46;-2.90;99.90
15107;DHT22;7654;45.308;-75.096;2023-01-29T03:42:20;-2.90;99.90
15107;DHT22;7654;45.308;-75.096;2023-01-29T03:44:59;-2.90;99.90
15107;DHT22;7654;45.308;-75.096;2023-01-29T03:47:40;-2.80;99.90
15107;DHT22;7654;45.308;-75.096;2023-01-29T03:50:21;-2.80;99.90
15107;DHT22;7654;45.308;-75.096;2023-01-29T03:52:59;-2.90;99.90
15107;DHT22;7654;45.308;-75.096;2023-01-29T03:55:35;-2.90;99.90
15107;DHT22;7654;45.308;-75.096;2023-01-29T03:58:18;-3.00;99.90
15107;DHT22;7654;45.308;-75.096;2023-01-29T04:00:54;-3.00;99.90
15107;DHT22;7654;45.308;-75.096;2023-01-29T04:03:32;-3.10;99.90
15107;DHT22;7654;45.308;-75.096;2023-01-29T04:06:08;-3.20;99.90
15107;DHT22;7654;45.308;-75.096;2023-01-29T04:08:44;-3.30;99.90
15107;DHT22;7654;45.308;-75.096;2023-01-29T04:11:18;-3.40;99.90
15107;DHT22;7654;45.308;-75.096;2023-01-29T04:13:51;-3.40;99.90
15107;DHT22;7654;45.308;-75.096;2023-01-29T04:16:25;-3.50;99.90
15107;DHT22;7654;45.308;-75.096;2023-01-29T04:18:59;-3.50;99.90
15107;DHT22;7654;45.308;-75.096;2023-01-29T04:21:30;-3.60;99.90
15107;DHT22;7654;45.308;-75.096;2023-01-29T04:24:00;-3.70;99.90
15107;DHT22;7654;45.308;-75.096;2023-01-29T04:26:50;-3.70;99.90
15107;DHT22;7654;45.308;-75.096;2023-01-29T04:29:28;-3.90;99.90
15107;DHT22;7654;45.308;-75.096;2023-01-29T04:32:10;-3.90;99.90
15107;DHT22;7654;45.308;-75.096;2023-01-29T04:34:53;-4.00;99.90
15107;DHT22;7654;45.308;-75.096;2023-01-29T04:37:34;-4.10;99.90
15107;DHT22;7654;45.308;-75.096;2023-01-29T04:40:17;-4.20;99.90
15107;DHT22;7654;45.308;-75.096;2023-01-29T04:42:55;-4.30;99.90
15107;DHT22;7654;45.308;-75.096;2023-01-29T04:45:34;-4.50;99.90
15107;DHT22;7654;45.308;-75.096;2023-01-29T04:48:12;-4.60;99.90
15107;DHT22;7654;45.308;-75.096;2023-01-29T04:50:54;-4.70;99.90
15107;DHT22;7654;45.308;-75.096;2023-01-29T04:53:35;-4.90;99.90
15107;DHT22;7654;45.308;-75.096;2023-01-29T04:56:10;-5.10;99.90
15107;DHT22;7654;45.308;-75.096;2023-01-29T04:58:45;-5.30;99.90
15107;DHT22;7654;45.308;-75.096;2023-01-29T05:01:18;-5.50;99.90
15107;DHT22;7654;45.308;-75.096;2023-01-29T05:03:50;-5.70;99.90
15107;DHT22;7654;45.308;-75.096;2023-01-29T05:06:24;-6.00;99.90
15107;DHT22;7654;45.308;-75.096;2023-01-29T05:08:56;-6.20;99.90
15107;DHT22;7654;45.308;-75.096;2023-01-29T05:11:26;-6.30;99.90
15107;DHT22;7654;45.308;-75.096;2023-01-29T05:13:57;-6.50;99.90
15107;DHT22;7654;45.308;-75.096;2023-01-29T05:16:30;-6.60;99.90
15107;DHT22;7654;45.308;-75.096;2023-01-29T05:19:09;-6.80;99.90
15107;DHT22;7654;45.308;-75.096;2023-01-29T05:21:43;-6.80;99.90
15107;DHT22;7654;45.308;-75.096;2023-01-29T05:24:15;-6.90;99.90
15107;DHT22;7654;45.308;-75.096;2023-01-29T05:26:48;-7.00;99.90
15107;DHT22;7654;45.308;-75.096;2023-01-29T05:29:35;-7.10;99.90
15107;DHT22;7654;45.308;-75.096;2023-01-29T05:32:05;-7.10;99.90
15107;DHT22;7654;45.308;-75.096;2023-01-29T05:34:35;-7.00;99.90
15107;DHT22;7654;45.308;-75.096;2023-01-29T05:37:08;-7.00;99.90
15107;DHT22;7654;45.308;-75.096;2023-01-29T05:39:38;-6.90;99.90
15107;DHT22;7654;45.308;-75.096;2023-01-29T05:42:09;-6.60;99.90
15107;DHT22;7654;45.308;-75.096;2023-01-29T05:44:39;-6.50;99.90
15107;DHT22;7654;45.308;-75.096;2023-01-29T05:47:09;-6.50;99.90
15107;DHT22;7654;45.308;-75.096;2023-01-29T05:49:39;-6.50;99.90
15107;DHT22;7654;45.308;-75.096;2023-01-29T05:52:11;-6.50;99.90
15107;DHT22;7654;45.308;-75.096;2023-01-29T05:54:41;-6.50;99.90
15107;DHT22;7654;45.308;-75.096;2023-01-29T05:57:11;-6.50;99.90
15107;DHT22;7654;45.308;-75.096;2023-01-29T05:59:41;-6.40;99.90
15107;DHT22;7654;45.308;-75.096;2023-01-29T06:02:11;-6.30;99.90
15107;DHT22;7654;45.308;-75.096;2023-01-29T06:04:41;-6.30;99.90
15107;DHT22;7654;45.308;-75.096;2023-01-29T06:07:13;-6.20;99.90
15107;DHT22;7654;45.308;-75.096;2023-01-29T06:09:43;-6.10;99.90
15107;DHT22;7654;45.308;-75.096;2023-01-29T06:12:13;-6.00;99.90
15107;DHT22;7654;45.308;-75.096;2023-01-29T06:14:44;-5.90;99.90
15107;DHT22;7654;45.308;-75.096;2023-01-29T06:17:14;-5.90;99.90
15107;DHT22;7654;45.308;-75.096;2023-01-29T06:19:45;-5.70;99.90
15107;DHT22;7654;45.308;-75.096;2023-01-29T06:22:17;-5.60;99.90
15107;DHT22;7654;45.308;-75.096;2023-01-29T06:24:47;-5.60;99.90
15107;DHT22;7654;45.308;-75.096;2023-01-29T06:27:17;-5.50;99.90
15107;DHT22;7654;45.308;-75.096;2023-01-29T06:29:48;-5.50;99.90
15107;DHT22;7654;45.308;-75.096;2023-01-29T06:32:18;-5.50;99.90
15107;DHT22;7654;45.308;-75.096;2023-01-29T06:34:48;-5.50;99.90
15107;DHT22;7654;45.308;-75.096;2023-01-29T06:37:20;-5.40;99.90
15107;DHT22;7654;45.308;-75.096;2023-01-29T06:39:50;-5.50;99.90
15107;DHT22;7654;45.308;-75.096;2023-01-29T06:42:20;-5.50;99.90
15107;DHT22;7654;45.308;-75.096;2023-01-29T06:44:54;-5.50;99.90
15107;DHT22;7654;45.308;-75.096;2023-01-29T06:47:26;-5.50;99.90
15107;DHT22;7654;45.308;-75.096;2023-01-29T06:49:56;-5.50;99.90
15107;DHT22;7654;45.308;-75.096;2023-01-29T06:52:29;-5.40;99.90
15107;DHT22;7654;45.308;-75.096;2023-01-29T06:54:59;-5.40;99.90
15107;DHT22;7654;45.308;-75.096;2023-01-29T06:57:29;-5.40;99.90
15107;DHT22;7654;45.308;-75.096;2023-01-29T06:59:59;-5.40;99.90
15107;DHT22;7654;45.308;-75.096;2023-01-29T07:02:29;-5.40;99.90
15107;DHT22;7654;45.308;-75.096;2023-01-29T07:05:00;-5.50;99.90
15107;DHT22;7654;45.308;-75.096;2023-01-29T07:07:34;-5.50;99.90
15107;DHT22;7654;45.308;-75.096;2023-01-29T07:10:06;-5.60;99.90
15107;DHT22;7654;45.308;-75.096;2023-01-29T07:12:36;-5.70;99.90
15107;DHT22;7654;45.308;-75.096;2023-01-29T07:15:07;-5.70;99.90
15107;DHT22;7654;45.308;-75.096;2023-01-29T07:17:39;-5.90;99.90
15107;DHT22;7654;45.308;-75.096;2023-01-29T07:20:10;-5.90;99.90
15107;DHT22;7654;45.308;-75.096;2023-01-29T07:22:43;-6.00;99.90
15107;DHT22;7654;45.308;-75.096;2023-01-29T07:25:13;-6.00;99.90
15107;DHT22;7654;45.308;-75.096;2023-01-29T07:27:43;-6.10;99.90
15107;DHT22;7654;45.308;-75.096;2023-01-29T07:30:14;-6.10;99.90
15107;DHT22;7654;45.308;-75.096;2023-01-29T07:32:44;-6.20;99.90
15107;DHT22;7654;45.308;-75.096;2023-01-29T07:35:15;-6.20;99.90
15107;DHT22;7654;45.308;-75.096;2023-01-29T07:37:48;-6.30;99.90
15107;DHT22;7654;45.308;-75.096;2023-01-29T07:40:18;-6.40;99.90
15107;DHT22;7654;45.308;-75.096;2023-01-29T07:42:48;-6.40;99.90
15107;DHT22;7654;45.308;-75.096;2023-01-29T07:45:18;-6.40;99.90
15107;DHT22;7654;45.308;-75.096;2023-01-29T07:47:52;-6.40;99.90
15107;DHT22;7654;45.308;-75.096;2023-01-29T07:50:23;-6.40;99.90
15107;DHT22;7654;45.308;-75.096;2023-01-29T07:52:56;-6.40;99.90
15107;DHT22;7654;45.308;-75.096;2023-01-29T07:55:26;-6.30;99.90
15107;DHT22;7654;45.308;-75.096;2023-01-29T07:57:57;-6.30;99.90
15107;DHT22;7654;45.308;-75.096;2023-01-29T08:00:27;-6.20;99.90
15107;DHT22;7654;45.308;-75.096;2023-01-29T08:03:02;-6.10;99.90
15107;DHT22;7654;45.308;-75.096;2023-01-29T08:05:33;-6.10;99.90
15107;DHT22;7654;45.308;-75.096;2023-01-29T08:08:04;-6.10;99.90
15107;DHT22;7654;45.308;-75.096;2023-01-29T08:10:35;-6.10;99.90
15107;DHT22;7654;45.308;-75.096;2023-01-29T08:13:06;-6.10;99.90
15107;DHT22;7654;45.308;-75.096;2023-01-29T08:15:37;-6.20;99.90
15107;DHT22;7654;45.308;-75.096;2023-01-29T08:18:07;-6.20;99.90
15107;DHT22;7654;45.308;-75.096;2023-01-29T08:20:37;-6.20;99.90
15107;DHT22;7654;45.308;-75.096;2023-01-29T08:23:14;-6.30;99.90
15107;DHT22;7654;45.308;-75.096;2023-01-29T08:25:45;-6.20;99.90
15107;DHT22;7654;45.308;-75.096;2023-01-29T08:28:15;-6.30;99.90
15107;DHT22;7654;45.308;-75.096;2023-01-29T08:30:45;-6.30;99.90
15107;DHT22;7654;45.308;-75.096;2023-01-29T08:33:16;-6.30;99.90
15107;DHT22;7654;45.308;-75.096;2023-01-29T08:35:56;-6.40;99.90
15107;DHT22;7654;45.308;-75.096;2023-01-29T08:38:28;-6.40;99.90
15107;DHT22;7654;45.308;-75.096;2023-01-29T08:40:58;-6.30;99.90
15107;DHT22;7654;45.308;-75.096;2023-01-29T08:43:28;-6.20;99.90
15107;DHT22;7654;45.308;-75.096;2023-01-29T08:45:59;-6.20;99.90
15107;DHT22;7654;45.308;-75.096;2023-01-29T08:48:29;-6.20;99.90
15107;DHT22;7654;45.308;-75.096;2023-01-29T08:50:59;-6.10;99.90
15107;DHT22;7654;45.308;-75.096;2023-01-29T08:53:32;-6.00;99.90
15107;DHT22;7654;45.308;-75.096;2023-01-29T08:56:02;-6.00;99.90
15107;DHT22;7654;45.308;-75.096;2023-01-29T08:58:32;-5.90;99.90
15107;DHT22;7654;45.308;-75.096;2023-01-29T09:01:06;-5.90;99.90
15107;DHT22;7654;45.308;-75.096;2023-01-29T09:03:37;-5.90;99.90
15107;DHT22;7654;45.308;-75.096;2023-01-29T09:06:09;-5.90;99.90
15107;DHT22;7654;45.308;-75.096;2023-01-29T09:08:41;-5.80;99.90
15107;DHT22;7654;45.308;-75.096;2023-01-29T09:11:11;-5.80;99.90
15107;DHT22;7654;45.308;-75.096;2023-01-29T09:13:41;-5.80;99.90
15107;DHT22;7654;45.308;-75.096;2023-01-29T09:16:11;-5.90;99.90
15107;DHT22;7654;45.308;-75.096;2023-01-29T09:18:41;-5.90;99.90
15107;DHT22;7654;45.308;-75.096;2023-01-29T09:21:12;-5.90;99.90
15107;DHT22;7654;45.308;-75.096;2023-01-29T09:23:43;-5.90;99.90
15107;DHT22;7654;45.308;-75.096;2023-01-29T09:26:14;-5.90;99.90
15107;DHT22;7654;45.308;-75.096;2023-01-29T09:28:44;-5.90;99.90
15107;DHT22;7654;45.308;-75.096;2023-01-29T09:31:14;-5.90;99.90
15107;DHT22;7654;45.308;-75.096;2023-01-29T09:33:44;-6.00;99.90
15107;DHT22;7654;45.308;-75.096;2023-01-29T09:36:14;-5.90;99.90
15107;DHT22;7654;45.308;-75.096;2023-01-29T09:38:46;-5.90;99.90
15107;DHT22;7654;45.308;-75.096;2023-01-29T09:41:26;-5.90;99.90
15107;DHT22;7654;45.308;-75.096;2023-01-29T09:44:01;-5.90;99.90
15107;DHT22;7654;45.308;-75.096;2023-01-29T09:46:37;-5.80;99.90
15107;DHT22;7654;45.308;-75.096;2023-01-29T09:49:13;-5.80;99.90
15107;DHT22;7654;45.308;-75.096;2023-01-29T09:51:48;-5.80;99.90
15107;DHT22;7654;45.308;-75.096;2023-01-29T09:54:23;-5.80;99.90
15107;DHT22;7654;45.308;-75.096;2023-01-29T09:56:56;-5.70;99.90
15107;DHT22;7654;45.308;-75.096;2023-01-29T09:59:28;-5.70;99.90
15107;DHT22;7654;45.308;-75.096;2023-01-29T10:02:09;-5.70;99.90
15107;DHT22;7654;45.308;-75.096;2023-01-29T10:04:56;-5.70;99.90
15107;DHT22;7654;45.308;-75.096;2023-01-29T10:10:48;-5.60;99.90
15107;DHT22;7654;45.308;-75.096;2023-01-29T10:13:27;-5.60;99.90
15107;DHT22;7654;45.308;-75.096;2023-01-29T10:16:07;-5.60;99.90
15107;DHT22;7654;45.308;-75.096;2023-01-29T10:19:02;-5.60;99.90
15107;DHT22;7654;45.308;-75.096;2023-01-29T10:21:54;-5.50;99.90
15107;DHT22;7654;45.308;-75.096;2023-01-29T10:24:35;-5.50;99.90
15107;DHT22;7654;45.308;-75.096;2023-01-29T10:27:15;-5.40;99.90
15107;DHT22;7654;45.308;-75.096;2023-01-29T10:29:47;-5.40;99.90
15107;DHT22;7654;45.308;-75.096;2023-01-29T10:32:21;-5.40;99.90
15107;DHT22;7654;45.308;-75.096;2023-01-29T10:34:56;-5.40;99.90
15107;DHT22;7654;45.308;-75.096;2023-01-29T10:37:35;-5.40;99.90
15107;DHT22;7654;45.308;-75.096;2023-01-29T10:40:18;-5.40;99.90
15107;DHT22;7654;45.308;-75.096;2023-01-29T10:42:54;-5.40;99.90
15107;DHT22;7654;45.308;-75.096;2023-01-29T10:45:31;-5.40;99.90
15107;DHT22;7654;45.308;-75.096;2023-01-29T10:48:35;-5.40;99.90
15107;DHT22;7654;45.308;-75.096;2023-01-29T10:51:20;-5.30;99.90
15107;DHT22;7654;45.308;-75.096;2023-01-29T10:53:59;-5.30;99.90
15107;DHT22;7654;45.308;-75.096;2023-01-29T10:56:50;-5.20;99.90
15107;DHT22;7654;45.308;-75.096;2023-01-29T10:59:36;-5.20;99.90
15107;DHT22;7654;45.308;-75.096;2023-01-29T11:02:14;-5.20;99.90
15107;DHT22;7654;45.308;-75.096;2023-01-29T11:04:46;-5.20;99.90
15107;DHT22;7654;45.308;-75.096;2023-01-29T11:07:17;-5.20;99.90
15107;DHT22;7654;45.308;-75.096;2023-01-29T11:09:54;-5.20;99.90
15107;DHT22;7654;45.308;-75.096;2023-01-29T11:12:27;-5.20;99.90
15107;DHT22;7654;45.308;-75.096;2023-01-29T11:15:05;-5.30;99.90
15107;DHT22;7654;45.308;-75.096;2023-01-29T11:18:00;-5.20;99.90
15107;DHT22;7654;45.308;-75.096;2023-01-29T11:20:32;-5.20;99.90
15107;DHT22;7654;45.308;-75.096;2023-01-29T11:23:02;-5.20;99.90
15107;DHT22;7654;45.308;-75.096;2023-01-29T11:25:35;-5.20;99.90
15107;DHT22;7654;45.308;-75.096;2023-01-29T11:28:07;-5.20;99.90
15107;DHT22;7654;45.308;-75.096;2023-01-29T11:30:41;-5.20;99.90
15107;DHT22;7654;45.308;-75.096;2023-01-29T11:33:18;-5.20;99.90
15107;DHT22;7654;45.308;-75.096;2023-01-29T11:35:49;-5.20;99.90
15107;DHT22;7654;45.308;-75.096;2023-01-29T11:38:22;-5.20;99.90
15107;DHT22;7654;45.308;-75.096;2023-01-29T11:40:53;-5.30;99.90
15107;DHT22;7654;45.308;-75.096;2023-01-29T11:43:33;-5.30;99.90
15107;DHT22;7654;45.308;-75.096;2023-01-29T11:46:13;-5.30;99.90
15107;DHT22;7654;45.308;-75.096;2023-01-29T11:48:45;-5.40;99.90
15107;DHT22;7654;45.308;-75.096;2023-01-29T11:51:21;-5.40;99.90
15107;DHT22;7654;45.308;-75.096;2023-01-29T11:53:53;-5.40;99.90
15107;DHT22;7654;45.308;-75.096;2023-01-29T11:56:28;-5.50;99.90
15107;DHT22;7654;45.308;-75.096;2023-01-29T11:59:01;-5.60;99.90
15107;DHT22;7654;45.308;-75.096;2023-01-29T12:01:35;-5.70;99.90
15107;DHT22;7654;45.308;-75.096;2023-01-29T12:04:15;-5.80;99.90
15107;DHT22;7654;45.308;-75.096;2023-01-29T12:06:47;-5.80;99.90
15107;DHT22;7654;45.308;-75.096;2023-01-29T12:09:22;-5.80;99.90
15107;DHT22;7654;45.308;-75.096;2023-01-29T12:11:54;-6.00;99.90
15107;DHT22;7654;45.308;-75.096;2023-01-29T12:14:27;-6.10;99.90
15107;DHT22;7654;45.308;-75.096;2023-01-29T12:17:04;-6.20;99.90
15107;DHT22;7654;45.308;-75.096;2023-01-29T12:19:39;-6.30;99.90
15107;DHT22;7654;45.308;-75.096;2023-01-29T12:22:16;-6.30;99.90
15107;DHT22;7654;45.308;-75.096;2023-01-29T12:24:51;-6.40;99.90
15107;DHT22;7654;45.308;-75.096;2023-01-29T12:27:27;-6.50;99.90
15107;DHT22;7654;45.308;-75.096;2023-01-29T12:30:04;-6.50;99.90
15107;DHT22;7654;45.308;-75.096;2023-01-29T12:32:43;-6.60;99.90
15107;DHT22;7654;45.308;-75.096;2023-01-29T12:35:20;-6.60;99.90
15107;DHT22;7654;45.308;-75.096;2023-01-29T12:37:55;-6.60;99.90
15107;DHT22;7654;45.308;-75.096;2023-01-29T12:40:30;-6.70;99.90
15107;DHT22;7654;45.308;-75.096;2023-01-29T12:43:06;-6.70;99.90
15107;DHT22;7654;45.308;-75.096;2023-01-29T12:45:41;-6.70;99.90
15107;DHT22;7654;45.308;-75.096;2023-01-29T12:48:20;-6.70;99.90
15107;DHT22;7654;45.308;-75.096;2023-01-29T12:50:52;-6.80;99.90
15107;DHT22;7654;45.308;-75.096;2023-01-29T12:53:27;-6.80;99.90
15107;DHT22;7654;45.308;-75.096;2023-01-29T12:56:03;-6.80;99.90
15107;DHT22;7654;45.308;-75.096;2023-01-29T12:58:36;-6.90;99.90
15107;DHT22;7654;45.308;-75.096;2023-01-29T13:01:13;-6.90;99.90
15107;DHT22;7654;45.308;-75.096;2023-01-29T13:03:50;-6.90;99.90
15107;DHT22;7654;45.308;-75.096;2023-01-29T13:06:27;-6.90;99.90
15107;DHT22;7654;45.308;-75.096;2023-01-29T13:09:00;-6.90;99.90
15107;DHT22;7654;45.308;-75.096;2023-01-29T13:11:40;-6.90;99.90
15107;DHT22;7654;45.308;-75.096;2023-01-29T13:14:18;-7.00;99.90
15107;DHT22;7654;45.308;-75.096;2023-01-29T13:16:51;-6.90;99.90
15107;DHT22;7654;45.308;-75.096;2023-01-29T13:19:26;-6.90;99.90
15107;DHT22;7654;45.308;-75.096;2023-01-29T13:22:01;-6.90;99.90
15107;DHT22;7654;45.308;-75.096;2023-01-29T13:24:35;-6.90;99.90
15107;DHT22;7654;45.308;-75.096;2023-01-29T13:27:20;-6.90;99.90
15107;DHT22;7654;45.308;-75.096;2023-01-29T13:29:50;-7.00;99.90
15107;DHT22;7654;45.308;-75.096;2023-01-29T13:32:26;-6.90;99.90
15107;DHT22;7654;45.308;-75.096;2023-01-29T13:34:59;-6.90;99.90
15107;DHT22;7654;45.308;-75.096;2023-01-29T13:37:33;-6.90;99.90
15107;DHT22;7654;45.308;-75.096;2023-01-29T13:40:05;-6.90;99.90
15107;DHT22;7654;45.308;-75.096;2023-01-29T13:42:39;-6.90;99.90
15107;DHT22;7654;45.308;-75.096;2023-01-29T13:45:20;-7.10;99.90
15107;DHT22;7654;45.308;-75.096;2023-01-29T13:47:52;-7.10;99.90
15107;DHT22;7654;45.308;-75.096;2023-01-29T13:50:28;-7.10;99.90
15107;DHT22;7654;45.308;-75.096;2023-01-29T13:53:02;-7.00;99.90
15107;DHT22;7654;45.308;-75.096;2023-01-29T13:55:35;-7.00;99.90
15107;DHT22;7654;45.308;-75.096;2023-01-29T13:58:06;-7.10;99.90
15107;DHT22;7654;45.308;-75.096;2023-01-29T14:00:55;-7.10;99.90
15107;DHT22;7654;45.308;-75.096;2023-01-29T14:03:55;-7.10;99.90
15107;DHT22;7654;45.308;-75.096;2023-01-29T14:06:49;-7.10;99.90
15107;DHT22;7654;45.308;-75.096;2023-01-29T14:12:41;-7.20;99.90
15107;DHT22;7654;45.308;-75.096;2023-01-29T14:15:17;-7.20;99.90
15107;DHT22;7654;45.308;-75.096;2023-01-29T14:17:59;-7.20;99.90
15107;DHT22;7654;45.308;-75.096;2023-01-29T14:20:34;-7.30;99.90
15107;DHT22;7654;45.308;-75.096;2023-01-29T14:23:25;-7.40;99.90
15107;DHT22;7654;45.308;-75.096;2023-01-29T14:25:58;-7.40;99.90
15107;DHT22;7654;45.308;-75.096;2023-01-29T14:28:30;-7.40;99.90
15107;DHT22;7654;45.308;-75.096;2023-01-29T14:31:02;-7.50;99.90
15107;DHT22;7654;45.308;-75.096;2023-01-29T14:33:36;-7.50;99.90
15107;DHT22;7654;45.308;-75.096;2023-01-29T14:36:12;-7.60;99.90
15107;DHT22;7654;45.308;-75.096;2023-01-29T14:38:47;-7.70;99.90
15107;DHT22;7654;45.308;-75.096;2023-01-29T14:41:25;-7.70;99.90
15107;DHT22;7654;45.308;-75.096;2023-01-29T14:47:03;-7.70;99.90
15107;DHT22;7654;45.308;-75.096;2023-01-29T14:49:53;-7.80;99.90
15107;DHT22;7654;45.308;-75.096;2023-01-29T14:52:31;-7.80;99.90
15107;DHT22;7654;45.308;-75.096;2023-01-29T14:55:06;-7.90;99.90
15107;DHT22;7654;45.308;-75.096;2023-01-29T14:57:37;-7.80;99.90
15107;DHT22;7654;45.308;-75.096;2023-01-29T15:00:24;-7.70;99.90
15107;DHT22;7654;45.308;-75.096;2023-01-29T15:02:55;-7.60;99.90
15107;DHT22;7654;45.308;-75.096;2023-01-29T15:05:31;-7.50;99.90
15107;DHT22;7654;45.308;-75.096;2023-01-29T15:08:05;-7.60;99.90
15107;DHT22;7654;45.308;-75.096;2023-01-29T15:10:41;-7.60;99.90
15107;DHT22;7654;45.308;-75.096;2023-01-29T15:13:16;-7.40;99.90
15107;DHT22;7654;45.308;-75.096;2023-01-29T15:15:53;-7.40;99.90
15107;DHT22;7654;45.308;-75.096;2023-01-29T15:18:30;-7.30;99.90
15107;DHT22;7654;45.308;-75.096;2023-01-29T15:21:03;-7.40;99.90
15107;DHT22;7654;45.308;-75.096;2023-01-29T15:23:36;-7.50;99.90
15107;DHT22;7654;45.308;-75.096;2023-01-29T15:26:10;-7.60;99.90
15107;DHT22;7654;45.308;-75.096;2023-01-29T15:28:43;-7.50;99.90
15107;DHT22;7654;45.308;-75.096;2023-01-29T15:31:28;-7.60;99.90
15107;DHT22;7654;45.308;-75.096;2023-01-29T15:34:04;-7.60;99.90
15107;DHT22;7654;45.308;-75.096;2023-01-29T15:36:36;-7.60;99.90
15107;DHT22;7654;45.308;-75.096;2023-01-29T15:39:17;-7.50;99.90
15107;DHT22;7654;45.308;-75.096;2023-01-29T15:41:53;-7.60;99.90
15107;DHT22;7654;45.308;-75.096;2023-01-29T15:44:35;-7.40;99.90
15107;DHT22;7654;45.308;-75.096;2023-01-29T15:47:07;-7.50;99.90
15107;DHT22;7654;45.308;-75.096;2023-01-29T15:49:39;-7.50;99.90
15107;DHT22;7654;45.308;-75.096;2023-01-29T15:52:16;-7.60;99.90
15107;DHT22;7654;45.308;-75.096;2023-01-29T15:54:47;-7.50;99.90
15107;DHT22;7654;45.308;-75.096;2023-01-29T15:57:22;-7.40;99.90
15107;DHT22;7654;45.308;-75.096;2023-01-29T15:59:55;-7.30;99.90
15107;DHT22;7654;45.308;-75.096;2023-01-29T16:02:37;-7.20;99.90
15107;DHT22;7654;45.308;-75.096;2023-01-29T16:05:12;-7.30;99.90
15107;DHT22;7654;45.308;-75.096;2023-01-29T16:07:44;-7.40;99.90
15107;DHT22;7654;45.308;-75.096;2023-01-29T16:10:17;-7.50;99.90
15107;DHT22;7654;45.308;-75.096;2023-01-29T16:12:50;-7.50;99.90
15107;DHT22;7654;45.308;-75.096;2023-01-29T16:15:32;-7.40;99.90